Lexa Maersk — OYYL2 — position and weather

sailwx.info

Track history (hours):
 
Tides and Currents Weather Stations Pressure Air Temp Water Temp Dewpoint Dewpoint Depression Visibility Wind Speed Wind Dir Waves Ship Positions

Lexa Maersk

Last reported at 2016-Apr-28 01:33 UTC. Time now 2016-May-04 13:33 UTC.
Position S 37°35' E 176°12'.

Length 265.8 m; beam 37.3 m; draft 14 m.

Type: Ship (hazmat cat A). MMSI: 219979000.

Date/timePositionNaut miles runAvg speedWind from/ knotsBaromVisibWave heightAir tempDewpointWater temp
2016-Apr-28 01:33S 37°35' E 176°12'5 4.7
2016-Apr-28 00:33S 37°40' E 176°11'0 0.0
2016-Apr-27 23:33S 37°40' E 176°11'0 0.0
2016-Apr-27 22:33S 37°40' E 176°11'0 0.0
2016-Apr-27 21:33S 37°40' E 176°11'0 0.0
2016-Apr-27 20:33S 37°40' E 176°11'0 0.0
2016-Apr-27 19:33S 37°40' E 176°11'0 0.0
2016-Apr-27 18:33S 37°40' E 176°11'0 0.0
2016-Apr-27 17:33S 37°40' E 176°11'0 0.0
2016-Apr-27 16:33S 37°40' E 176°11'0 0.0
2016-Apr-27 15:33S 37°40' E 176°11'0 0.0
2016-Apr-27 14:33S 37°40' E 176°11'0 0.0
2016-Apr-27 13:33S 37°40' E 176°11'0 0.0
2016-Apr-27 12:33S 37°40' E 176°11'0 0.0
2016-Apr-27 11:33S 37°40' E 176°11'0 0.0
2016-Apr-27 10:33S 37°40' E 176°11'0 0.0
2016-Apr-27 09:33S 37°40' E 176°11'0 0.0
2016-Apr-27 08:33S 37°40' E 176°11'0 0.0
2016-Apr-27 07:33S 37°40' E 176°11'0 0.0
2016-Apr-27 06:33S 37°40' E 176°11'0 0.0
2016-Apr-27 05:33S 37°40' E 176°11'0 0.0
2016-Apr-27 04:33S 37°40' E 176°11'0 0.0
2016-Apr-27 03:33S 37°40' E 176°11'0 0.0
2016-Apr-27 02:33S 37°40' E 176°11'0 0.0
2016-Apr-27 01:33S 37°40' E 176°11'0 0.0
2016-Apr-27 00:33S 37°40' E 176°11'0 0.0
2016-Apr-26 23:33S 37°40' E 176°11'0 0.0
2016-Apr-26 22:33S 37°40' E 176°11'0 0.0
2016-Apr-26 21:33S 37°40' E 176°11'0 0.0
2016-Apr-26 20:33S 37°40' E 176°11'0 0.0
2016-Apr-26 19:33S 37°40' E 176°11'0 0.0
2016-Apr-26 18:33S 37°40' E 176°11'0 0.0
2016-Apr-26 17:30S 37°40' E 176°11'5 5.4
2016-Apr-26 16:34S 37°35' E 176°12'10915.2
2016-Apr-26 09:23S 35°52' E 175°27'  
2016-Apr-23 07:34S 26°45' E 153°11'1616.0
2016-Apr-23 06:33S 27°00' E 153°15'1515.3
2016-Apr-23 05:33S 27°15' E 153°18'9 9.2
2016-Apr-23 04:34S 27°22' E 153°11'0 0.0
2016-Apr-23 03:29S 27°22' E 153°11'0 0.0
2016-Apr-23 02:32S 27°22' E 153°11'0 0.0
2016-Apr-23 01:32S 27°22' E 153°11'0 0.0
2016-Apr-23 00:32S 27°22' E 153°11'0 0.0
2016-Apr-22 23:32S 27°22' E 153°11'0 0.0
2016-Apr-22 22:32S 27°22' E 153°11'0 0.0
2016-Apr-22 21:32S 27°22' E 153°11'0 0.0
2016-Apr-22 20:32S 27°22' E 153°11'0 0.0
2016-Apr-22 19:32S 27°22' E 153°11'0 0.0
2016-Apr-22 18:32S 27°22' E 153°11'0 0.0
2016-Apr-22 17:32S 27°22' E 153°11'0 0.0
2016-Apr-22 16:32S 27°22' E 153°11'0 0.0
2016-Apr-22 15:32S 27°22' E 153°11'0 0.0
2016-Apr-22 14:32S 27°22' E 153°11'0 0.0
2016-Apr-22 13:32S 27°22' E 153°11'0 0.0
2016-Apr-22 12:33S 27°22' E 153°11'4 4.3
2016-Apr-22 11:33S 27°18' E 153°13'1413.7
2016-Apr-22 10:33S 27°06' E 153°19'1616.4
2016-Apr-22 09:33S 26°52' E 153°09'1010.1
2016-Apr-22 08:32S 26°42' E 153°12'1010.8
2016-Apr-22 07:34S 26°32' E 153°16'  
Track history (hours):
 
Tides and Currents Weather Stations Pressure Air Temp Water Temp Dewpoint Dewpoint Depression Visibility Wind Speed Wind Dir Waves Ship Positions

Lexa Maersk

Last reported at 2016-Apr-28 01:33 UTC. Time now 2016-May-04 13:33 UTC.
Position S 37°35' E 176°12'.

Length 265.8 m; beam 37.3 m; draft 14 m.

Type: Ship (hazmat cat A). MMSI: 219979000.

Date/timePositionNaut miles runAvg speedWind from/ knotsBaromVisibWave heightAir tempDewpointWater temp
2016-Apr-28 01:33S 37°35' E 176°12'5 4.7
2016-Apr-28 00:33S 37°40' E 176°11'0 0.0
2016-Apr-27 23:33S 37°40' E 176°11'0 0.0
2016-Apr-27 22:33S 37°40' E 176°11'0 0.0
2016-Apr-27 21:33S 37°40' E 176°11'0 0.0
2016-Apr-27 20:33S 37°40' E 176°11'0 0.0
2016-Apr-27 19:33S 37°40' E 176°11'0 0.0
2016-Apr-27 18:33S 37°40' E 176°11'0 0.0
2016-Apr-27 17:33S 37°40' E 176°11'0 0.0
2016-Apr-27 16:33S 37°40' E 176°11'0 0.0
2016-Apr-27 15:33S 37°40' E 176°11'0 0.0
2016-Apr-27 14:33S 37°40' E 176°11'0 0.0
2016-Apr-27 13:33S 37°40' E 176°11'0 0.0
2016-Apr-27 12:33S 37°40' E 176°11'0 0.0
2016-Apr-27 11:33S 37°40' E 176°11'0 0.0
2016-Apr-27 10:33S 37°40' E 176°11'0 0.0
2016-Apr-27 09:33S 37°40' E 176°11'0 0.0
2016-Apr-27 08:33S 37°40' E 176°11'0 0.0
2016-Apr-27 07:33S 37°40' E 176°11'0 0.0
2016-Apr-27 06:33S 37°40' E 176°11'0 0.0
2016-Apr-27 05:33S 37°40' E 176°11'0 0.0
2016-Apr-27 04:33S 37°40' E 176°11'0 0.0
2016-Apr-27 03:33S 37°40' E 176°11'0 0.0
2016-Apr-27 02:33S 37°40' E 176°11'0 0.0
2016-Apr-27 01:33S 37°40' E 176°11'0 0.0
2016-Apr-27 00:33S 37°40' E 176°11'0 0.0
2016-Apr-26 23:33S 37°40' E 176°11'0 0.0
2016-Apr-26 22:33S 37°40' E 176°11'0 0.0
2016-Apr-26 21:33S 37°40' E 176°11'0 0.0
2016-Apr-26 20:33S 37°40' E 176°11'0 0.0
2016-Apr-26 19:33S 37°40' E 176°11'0 0.0
2016-Apr-26 18:33S 37°40' E 176°11'0 0.0
2016-Apr-26 17:30S 37°40' E 176°11'5 5.4
2016-Apr-26 16:34S 37°35' E 176°12'10915.2
2016-Apr-26 09:23S 35°52' E 175°27'  
2016-Apr-23 07:34S 26°45' E 153°11'1616.0
2016-Apr-23 06:33S 27°00' E 153°15'1515.3
2016-Apr-23 05:33S 27°15' E 153°18'9 9.2
2016-Apr-23 04:34S 27°22' E 153°11'0 0.0
2016-Apr-23 03:29S 27°22' E 153°11'0 0.0
2016-Apr-23 02:32S 27°22' E 153°11'0 0.0
2016-Apr-23 01:32S 27°22' E 153°11'0 0.0
2016-Apr-23 00:32S 27°22' E 153°11'0 0.0
2016-Apr-22 23:32S 27°22' E 153°11'0 0.0
2016-Apr-22 22:32S 27°22' E 153°11'0 0.0
2016-Apr-22 21:32S 27°22' E 153°11'0 0.0
2016-Apr-22 20:32S 27°22' E 153°11'0 0.0
2016-Apr-22 19:32S 27°22' E 153°11'0 0.0
2016-Apr-22 18:32S 27°22' E 153°11'0 0.0
2016-Apr-22 17:32S 27°22' E 153°11'0 0.0
2016-Apr-22 16:32S 27°22' E 153°11'0 0.0
2016-Apr-22 15:32S 27°22' E 153°11'0 0.0
2016-Apr-22 14:32S 27°22' E 153°11'0 0.0
2016-Apr-22 13:32S 27°22' E 153°11'0 0.0
2016-Apr-22 12:33S 27°22' E 153°11'4 4.3
2016-Apr-22 11:33S 27°18' E 153°13'1413.7
2016-Apr-22 10:33S 27°06' E 153°19'1616.4
2016-Apr-22 09:33S 26°52' E 153°09'1010.1
2016-Apr-22 08:32S 26°42' E 153°12'1010.8
2016-Apr-22 07:34S 26°32' E 153°16'  

Dump ship's entire track history